sensor_id;sensor_type;location;lat;lon;timestamp;pressure;altitude;pressure_sealevel;temperature;humidity
72423;BME280;71399;54.146;38.734;2024-01-27T00:01:55;98582.59;;;-3.51;100.00
72423;BME280;71399;54.146;38.734;2024-01-27T00:04:22;98580.50;;;-3.48;100.00
72423;BME280;71399;54.146;38.734;2024-01-27T00:06:48;98578.25;;;-3.51;100.00
72423;BME280;71399;54.146;38.734;2024-01-27T00:09:14;98580.34;;;-3.46;100.00
72423;BME280;71399;54.146;38.734;2024-01-27T00:11:41;98567.16;;;-3.43;100.00
72423;BME280;71399;54.146;38.734;2024-01-27T00:14:07;98561.53;;;-3.55;100.00
72423;BME280;71399;54.146;38.734;2024-01-27T00:16:33;98583.91;;;-3.47;100.00
72423;BME280;71399;54.146;38.734;2024-01-27T00:19:00;98591.78;;;-3.49;100.00
72423;BME280;71399;54.146;38.734;2024-01-27T00:21:26;98591.47;;;-3.54;100.00
72423;BME280;71399;54.146;38.734;2024-01-27T00:23:53;98593.06;;;-3.53;100.00
72423;BME280;71399;54.146;38.734;2024-01-27T00:26:19;98597.91;;;-3.58;100.00
72423;BME280;71399;54.146;38.734;2024-01-27T00:28:46;98591.63;;;-3.64;100.00
72423;BME280;71399;54.146;38.734;2024-01-27T00:31:12;98591.78;;;-3.65;100.00
72423;BME280;71399;54.146;38.734;2024-01-27T00:33:38;98582.28;;;-3.65;100.00
72423;BME280;71399;54.146;38.734;2024-01-27T00:36:05;98580.84;;;-3.67;100.00
72423;BME280;71399;54.146;38.734;2024-01-27T00:38:31;98571.66;;;-3.70;100.00
72423;BME280;71399;54.146;38.734;2024-01-27T00:40:57;98557.47;;;-3.66;100.00
72423;BME280;71399;54.146;38.734;2024-01-27T00:43:23;98547.69;;;-3.62;100.00
72423;BME280;71399;54.146;38.734;2024-01-27T00:45:49;98537.22;;;-3.61;100.00
72423;BME280;71399;54.146;38.734;2024-01-27T00:48:16;98529.00;;;-3.64;100.00
72423;BME280;71399;54.146;38.734;2024-01-27T00:50:42;98551.69;;;-3.60;100.00
72423;BME280;71399;54.146;38.734;2024-01-27T00:53:09;98543.97;;;-3.60;100.00
72423;BME280;71399;54.146;38.734;2024-01-27T00:55:36;98546.53;;;-3.60;100.00
72423;BME280;71399;54.146;38.734;2024-01-27T00:58:03;98558.16;;;-3.64;100.00
72423;BME280;71399;54.146;38.734;2024-01-27T01:00:29;98547.84;;;-3.64;100.00
72423;BME280;71399;54.146;38.734;2024-01-27T01:02:57;98543.16;;;-3.60;100.00
72423;BME280;71399;54.146;38.734;2024-01-27T01:05:23;98544.59;;;-3.58;100.00
72423;BME280;71399;54.146;38.734;2024-01-27T01:07:49;98550.09;;;-3.61;100.00
72423;BME280;71399;54.146;38.734;2024-01-27T01:10:16;98551.22;;;-3.63;100.00
72423;BME280;71399;54.146;38.734;2024-01-27T01:12:42;98553.78;;;-3.63;100.00
72423;BME280;71399;54.146;38.734;2024-01-27T01:15:08;98553.94;;;-3.65;100.00
72423;BME280;71399;54.146;38.734;2024-01-27T01:17:35;98555.56;;;-3.64;100.00
72423;BME280;71399;54.146;38.734;2024-01-27T01:20:01;98552.31;;;-3.66;100.00
72423;BME280;71399;54.146;38.734;2024-01-27T01:22:29;98550.09;;;-3.61;100.00
72423;BME280;71399;54.146;38.734;2024-01-27T01:24:56;98546.38;;;-3.58;100.00
72423;BME280;71399;54.146;38.734;2024-01-27T01:27:22;98560.72;;;-3.56;100.00
72423;BME280;71399;54.146;38.734;2024-01-27T01:29:48;98571.03;;;-3.56;100.00
72423;BME280;71399;54.146;38.734;2024-01-27T01:32:15;98558.31;;;-3.65;100.00
72423;BME280;71399;54.146;38.734;2024-01-27T01:34:41;98570.72;;;-3.61;100.00
72423;BME280;71399;54.146;38.734;2024-01-27T01:37:07;98575.84;;;-3.61;100.00
72423;BME280;71399;54.146;38.734;2024-01-27T01:39:33;98581.31;;;-3.64;100.00
72423;BME280;71399;54.146;38.734;2024-01-27T01:42:00;98570.53;;;-3.67;100.00
72423;BME280;71399;54.146;38.734;2024-01-27T01:44:29;98572.28;;;-3.68;100.00
72423;BME280;71399;54.146;38.734;2024-01-27T01:46:56;98572.44;;;-3.69;100.00
72423;BME280;71399;54.146;38.734;2024-01-27T01:49:22;98576.00;;;-3.70;100.00
72423;BME280;71399;54.146;38.734;2024-01-27T01:51:49;98579.84;;;-3.75;100.00
72423;BME280;71399;54.146;38.734;2024-01-27T01:54:16;98580.84;;;-3.76;100.00
72423;BME280;71399;54.146;38.734;2024-01-27T01:56:42;98572.78;;;-3.81;100.00
72423;BME280;71399;54.146;38.734;2024-01-27T01:59:08;98580.66;;;-3.82;100.00
72423;BME280;71399;54.146;38.734;2024-01-27T02:01:35;98574.84;;;-3.84;100.00
72423;BME280;71399;54.146;38.734;2024-01-27T02:04:04;98571.63;;;-3.86;100.00
72423;BME280;71399;54.146;38.734;2024-01-27T02:06:30;98568.91;;;-3.85;100.00
72423;BME280;71399;54.146;38.734;2024-01-27T02:08:56;98560.38;;;-3.94;100.00
72423;BME280;71399;54.146;38.734;2024-01-27T02:11:23;98560.69;;;-3.88;100.00
72423;BME280;71399;54.146;38.734;2024-01-27T02:13:50;98567.13;;;-3.84;100.00
72423;BME280;71399;54.146;38.734;2024-01-27T02:16:17;98563.75;;;-3.85;100.00
72423;BME280;71399;54.146;38.734;2024-01-27T02:18:43;98550.25;;;-3.87;100.00
72423;BME280;71399;54.146;38.734;2024-01-27T02:21:10;98554.56;;;-3.79;100.00
72423;BME280;71399;54.146;38.734;2024-01-27T02:23:36;98557.97;;;-3.79;100.00
72423;BME280;71399;54.146;38.734;2024-01-27T02:26:02;98562.66;;;-3.74;100.00
72423;BME280;71399;54.146;38.734;2024-01-27T02:28:29;98566.03;;;-3.74;100.00
72423;BME280;71399;54.146;38.734;2024-01-27T02:30:58;98576.00;;;-3.70;100.00
72423;BME280;71399;54.146;38.734;2024-01-27T02:33:26;98576.00;;;-3.70;100.00
72423;BME280;71399;54.146;38.734;2024-01-27T02:35:53;98579.53;;;-3.72;100.00
72423;BME280;71399;54.146;38.734;2024-01-27T02:38:19;98597.88;;;-3.75;100.00
72423;BME280;71399;54.146;38.734;2024-01-27T02:40:46;98591.44;;;-3.79;100.00
72423;BME280;71399;54.146;38.734;2024-01-27T02:43:13;98581.31;;;-3.80;100.00
72423;BME280;71399;54.146;38.734;2024-01-27T02:45:39;98578.72;;;-3.80;100.00
72423;BME280;71399;54.146;38.734;2024-01-27T02:48:06;98576.47;;;-3.83;100.00
72423;BME280;71399;54.146;38.734;2024-01-27T02:50:32;98578.25;;;-3.84;100.00
72423;BME280;71399;54.146;38.734;2024-01-27T02:52:58;98572.13;;;-3.83;100.00
72423;BME280;71399;54.146;38.734;2024-01-27T02:55:25;98577.41;;;-3.84;100.00
72423;BME280;71399;54.146;38.734;2024-01-27T02:57:51;98581.94;;;-3.86;100.00
72423;BME280;71399;54.146;38.734;2024-01-27T03:00:17;98587.38;;;-3.89;100.00
72423;BME280;71399;54.146;38.734;2024-01-27T03:02:45;98578.06;;;-3.91;100.00
72423;BME280;71399;54.146;38.734;2024-01-27T03:05:11;98580.66;;;-3.91;100.00
72423;BME280;71399;54.146;38.734;2024-01-27T03:07:40;98579.97;;;-3.93;100.00
72423;BME280;71399;54.146;38.734;2024-01-27T03:10:07;98575.66;;;-3.92;100.00
72423;BME280;71399;54.146;38.734;2024-01-27T03:12:33;98576.44;;;-3.92;100.00
72423;BME280;71399;54.146;38.734;2024-01-27T03:15:00;98584.31;;;-3.93;100.00
72423;BME280;71399;54.146;38.734;2024-01-27T03:17:26;98583.53;;;-3.94;100.00
72423;BME280;71399;54.146;38.734;2024-01-27T03:19:52;98580.00;;;-4.01;100.00
72423;BME280;71399;54.146;38.734;2024-01-27T03:22:19;98575.78;;;-4.02;100.00
72423;BME280;71399;54.146;38.734;2024-01-27T03:24:45;98579.50;;;-3.96;100.00
72423;BME280;71399;54.146;38.734;2024-01-27T03:27:11;98576.44;;;-4.00;100.00
72423;BME280;71399;54.146;38.734;2024-01-27T03:29:38;98580.31;;;-3.96;100.00
72423;BME280;71399;54.146;38.734;2024-01-27T03:32:05;98572.56;;;-4.04;100.00
72423;BME280;71399;54.146;38.734;2024-01-27T03:34:31;98573.84;;;-4.00;100.00
72423;BME280;71399;54.146;38.734;2024-01-27T03:36:57;98577.06;;;-3.98;100.00
72423;BME280;71399;54.146;38.734;2024-01-27T03:39:24;98578.69;;;-3.97;100.00
72423;BME280;71399;54.146;38.734;2024-01-27T03:41:51;98581.28;;;-3.97;100.00
72423;BME280;71399;54.146;38.734;2024-01-27T03:44:18;98582.06;;;-3.96;100.00
72423;BME280;71399;54.146;38.734;2024-01-27T03:46:44;98580.97;;;-3.94;100.00
72423;BME280;71399;54.146;38.734;2024-01-27T03:49:12;98582.75;;;-3.94;100.00
72423;BME280;71399;54.146;38.734;2024-01-27T03:51:38;98587.22;;;-3.96;100.00
72423;BME280;71399;54.146;38.734;2024-01-27T03:54:04;98589.00;;;-3.97;100.00
72423;BME280;71399;54.146;38.734;2024-01-27T03:56:30;98595.91;;;-3.97;100.00
72423;BME280;71399;54.146;38.734;2024-01-27T03:58:57;98586.56;;;-3.98;100.00
72423;BME280;71399;54.146;38.734;2024-01-27T04:01:23;98590.63;;;-3.96;100.00
72423;BME280;71399;54.146;38.734;2024-01-27T04:03:49;98590.28;;;-3.93;100.00
72423;BME280;71399;54.146;38.734;2024-01-27T04:06:15;98587.22;;;-3.88;100.00
72423;BME280;71399;54.146;38.734;2024-01-27T04:08:42;98596.56;;;-3.87;100.00
72423;BME280;71399;54.146;38.734;2024-01-27T04:11:22;98603.66;;;-3.89;100.00
72423;BME280;71399;54.146;38.734;2024-01-27T04:13:49;98601.25;;;-3.91;100.00
72423;BME280;71399;54.146;38.734;2024-01-27T04:16:16;98614.13;;;-3.91;100.00
72423;BME280;71399;54.146;38.734;2024-01-27T04:18:42;98615.88;;;-3.91;100.00
72423;BME280;71399;54.146;38.734;2024-01-27T04:21:09;98599.59;;;-4.00;100.00
72423;BME280;71399;54.146;38.734;2024-01-27T04:23:35;98628.88;;;-3.93;100.00
72423;BME280;71399;54.146;38.734;2024-01-27T04:26:01;98626.97;;;-3.91;100.00
72423;BME280;71399;54.146;38.734;2024-01-27T04:28:28;98631.81;;;-3.87;100.00
72423;BME280;71399;54.146;38.734;2024-01-27T04:30:56;98638.09;;;-3.90;100.00
72423;BME280;71399;54.146;38.734;2024-01-27T04:33:22;98651.91;;;-3.91;100.00
72423;BME280;71399;54.146;38.734;2024-01-27T04:35:48;98645.78;;;-3.98;100.00
72423;BME280;71399;54.146;38.734;2024-01-27T04:38:15;98639.34;;;-4.02;100.00
72423;BME280;71399;54.146;38.734;2024-01-27T04:40:41;98655.91;;;-3.97;100.00
72423;BME280;71399;54.146;38.734;2024-01-27T04:43:07;98653.34;;;-3.97;100.00
72423;BME280;71399;54.146;38.734;2024-01-27T04:45:33;98649.00;;;-3.96;100.00
72423;BME280;71399;54.146;38.734;2024-01-27T04:47:59;98656.72;;;-3.96;100.00
72423;BME280;71399;54.146;38.734;2024-01-27T04:50:27;98663.78;;;-3.98;100.00
72423;BME280;71399;54.146;38.734;2024-01-27T04:52:53;98652.84;;;-4.00;100.00
72423;BME280;71399;54.146;38.734;2024-01-27T04:55:19;98665.88;;;-4.02;100.00
72423;BME280;71399;54.146;38.734;2024-01-27T04:57:45;98665.22;;;-4.04;100.00
72423;BME280;71399;54.146;38.734;2024-01-27T05:00:12;98671.34;;;-4.05;100.00
72423;BME280;71399;54.146;38.734;2024-01-27T05:02:41;98665.84;;;-4.10;100.00
72423;BME280;71399;54.146;38.734;2024-01-27T05:05:08;98670.03;;;-4.09;100.00
72423;BME280;71399;54.146;38.734;2024-01-27T05:07:34;98665.03;;;-4.11;100.00
72423;BME280;71399;54.146;38.734;2024-01-27T05:10:00;98650.38;;;-4.18;100.00
72423;BME280;71399;54.146;38.734;2024-01-27T05:12:29;98652.78;;;-4.17;100.00
72423;BME280;71399;54.146;38.734;2024-01-27T05:14:55;98664.56;;;-4.14;100.00
72423;BME280;71399;54.146;38.734;2024-01-27T05:17:22;98661.31;;;-4.16;100.00
72423;BME280;71399;54.146;38.734;2024-01-27T05:19:51;98664.03;;;-4.18;100.00
72423;BME280;71399;54.146;38.734;2024-01-27T05:22:17;98661.78;;;-4.21;100.00
72423;BME280;71399;54.146;38.734;2024-01-27T05:24:43;98656.47;;;-4.19;100.00
72423;BME280;71399;54.146;38.734;2024-01-27T05:27:10;98670.00;;;-4.17;100.00
72423;BME280;71399;54.146;38.734;2024-01-27T05:29:39;98668.38;;;-4.18;100.00
72423;BME280;71399;54.146;38.734;2024-01-27T05:32:05;98671.25;;;-4.21;100.00
72423;BME280;71399;54.146;38.734;2024-01-27T05:34:31;98676.25;;;-4.20;100.00
72423;BME280;71399;54.146;38.734;2024-01-27T05:36:58;98667.75;;;-4.20;100.00
72423;BME280;71399;54.146;38.734;2024-01-27T05:39:24;98664.19;;;-4.19;100.00
72423;BME280;71399;54.146;38.734;2024-01-27T05:41:50;98677.88;;;-4.19;100.00
72423;BME280;71399;54.146;38.734;2024-01-27T05:44:17;98659.03;;;-4.28;100.00
72423;BME280;71399;54.146;38.734;2024-01-27T05:46:43;98673.84;;;-4.21;100.00
72423;BME280;71399;54.146;38.734;2024-01-27T05:49:09;98678.38;;;-4.15;100.00
72423;BME280;71399;54.146;38.734;2024-01-27T05:51:36;98686.88;;;-4.15;100.00
72423;BME280;71399;54.146;38.734;2024-01-27T05:54:02;98692.53;;;-4.11;100.00
72423;BME280;71399;54.146;38.734;2024-01-27T05:56:28;98692.03;;;-4.15;100.00
72423;BME280;71399;54.146;38.734;2024-01-27T05:58:55;98704.66;;;-4.03;100.00
72423;BME280;71399;54.146;38.734;2024-01-27T06:01:21;98708.50;;;-3.99;100.00
72423;BME280;71399;54.146;38.734;2024-01-27T06:03:47;98723.78;;;-3.98;100.00
72423;BME280;71399;54.146;38.734;2024-01-27T06:06:15;98732.69;;;-3.92;100.00
72423;BME280;71399;54.146;38.734;2024-01-27T06:08:41;98726.91;;;-3.94;100.00
72423;BME280;71399;54.146;38.734;2024-01-27T06:11:08;98757.66;;;-3.84;100.00
72423;BME280;71399;54.146;38.734;2024-01-27T06:13:34;98774.41;;;-3.80;100.00
72423;BME280;71399;54.146;38.734;2024-01-27T06:16:00;98765.38;;;-3.84;100.00
72423;BME280;71399;54.146;38.734;2024-01-27T06:18:27;98781.19;;;-3.71;100.00
72423;BME280;71399;54.146;38.734;2024-01-27T06:20:53;98787.53;;;-3.65;100.00
72423;BME280;71399;54.146;38.734;2024-01-27T06:23:19;98791.19;;;-3.68;100.00
72423;BME280;71399;54.146;38.734;2024-01-27T06:25:45;98816.03;;;-3.59;100.00
72423;BME280;71399;54.146;38.734;2024-01-27T06:28:12;98826.19;;;-3.57;100.00
72423;BME280;71399;54.146;38.734;2024-01-27T06:30:38;98831.50;;;-3.59;100.00
72423;BME280;71399;54.146;38.734;2024-01-27T06:33:04;98838.09;;;-3.56;100.00
72423;BME280;71399;54.146;38.734;2024-01-27T06:35:31;98844.41;;;-3.50;100.00
72423;BME280;71399;54.146;38.734;2024-01-27T06:37:57;98859.75;;;-3.41;100.00
72423;BME280;71399;54.146;38.734;2024-01-27T06:40:23;98858.47;;;-3.37;100.00
72423;BME280;71399;54.146;38.734;2024-01-27T06:42:50;98861.59;;;-3.25;100.00
72423;BME280;71399;54.146;38.734;2024-01-27T06:45:16;98875.13;;;-3.23;100.00
72423;BME280;71399;54.146;38.734;2024-01-27T06:47:43;98891.75;;;-3.17;100.00
72423;BME280;71399;54.146;38.734;2024-01-27T06:50:09;98894.66;;;-3.12;100.00
72423;BME280;71399;54.146;38.734;2024-01-27T06:52:35;98895.66;;;-3.05;100.00
72423;BME280;71399;54.146;38.734;2024-01-27T06:55:01;98884.22;;;-3.02;100.00
72423;BME280;71399;54.146;38.734;2024-01-27T06:57:29;98909.22;;;-2.94;100.00
72423;BME280;71399;54.146;38.734;2024-01-27T06:59:56;98909.38;;;-2.96;100.00
72423;BME280;71399;54.146;38.734;2024-01-27T07:02:23;98902.63;;;-2.97;100.00
72423;BME280;71399;54.146;38.734;2024-01-27T07:04:50;98915.88;;;-2.84;100.00
72423;BME280;71399;54.146;38.734;2024-01-27T07:07:16;98922.28;;;-2.88;100.00
72423;BME280;71399;54.146;38.734;2024-01-27T07:09:43;98931.66;;;-2.87;100.00
72423;BME280;71399;54.146;38.734;2024-01-27T07:12:09;98939.25;;;-2.77;100.00
72423;BME280;71399;54.146;38.734;2024-01-27T07:14:36;98934.63;;;-2.65;100.00
72423;BME280;71399;54.146;38.734;2024-01-27T07:17:03;98940.28;;;-2.53;100.00
72423;BME280;71399;54.146;38.734;2024-01-27T07:19:30;98957.72;;;-2.47;100.00
72423;BME280;71399;54.146;38.734;2024-01-27T07:21:57;98959.16;;;-2.45;100.00
72423;BME280;71399;54.146;38.734;2024-01-27T07:24:23;98959.81;;;-2.43;100.00
72423;BME280;71399;54.146;38.734;2024-01-27T07:26:49;98962.91;;;-2.47;100.00
72423;BME280;71399;54.146;38.734;2024-01-27T07:29:15;98972.72;;;-2.43;100.00
72423;BME280;71399;54.146;38.734;2024-01-27T07:31:41;98987.41;;;-2.43;100.00
72423;BME280;71399;54.146;38.734;2024-01-27T07:34:08;98983.69;;;-2.49;100.00
72423;BME280;71399;54.146;38.734;2024-01-27T07:36:35;98995.94;;;-2.43;100.00
72423;BME280;71399;54.146;38.734;2024-01-27T07:39:01;98986.28;;;-2.40;100.00
72423;BME280;71399;54.146;38.734;2024-01-27T07:41:27;99000.97;;;-2.33;100.00
72423;BME280;71399;54.146;38.734;2024-01-27T07:43:54;99004.38;;;-2.24;100.00
72423;BME280;71399;54.146;38.734;2024-01-27T07:46:21;99018.13;;;-2.15;100.00
72423;BME280;71399;54.146;38.734;2024-01-27T07:48:49;99010.53;;;-2.25;100.00
72423;BME280;71399;54.146;38.734;2024-01-27T07:51:15;99026.69;;;-2.15;100.00
72423;BME280;71399;54.146;38.734;2024-01-27T07:53:42;99030.09;;;-2.06;100.00
72423;BME280;71399;54.146;38.734;2024-01-27T07:56:08;99036.38;;;-1.92;100.00
72423;BME280;71399;54.146;38.734;2024-01-27T07:58:34;99037.41;;;-1.77;100.00
72423;BME280;71399;54.146;38.734;2024-01-27T08:01:00;99037.72;;;-1.80;100.00
72423;BME280;71399;54.146;38.734;2024-01-27T08:03:27;99046.44;;;-1.73;100.00
72423;BME280;71399;54.146;38.734;2024-01-27T08:05:53;99049.97;;;-1.65;100.00
72423;BME280;71399;54.146;38.734;2024-01-27T08:08:21;99059.03;;;-1.70;100.00
72423;BME280;71399;54.146;38.734;2024-01-27T08:10:48;99060.16;;;-1.64;100.00
72423;BME280;71399;54.146;38.734;2024-01-27T08:13:14;99066.00;;;-1.62;100.00
72423;BME280;71399;54.146;38.734;2024-01-27T08:15:41;99061.47;;;-1.60;100.00
72423;BME280;71399;54.146;38.734;2024-01-27T08:18:07;99061.47;;;-1.60;100.00
72423;BME280;71399;54.146;38.734;2024-01-27T08:20:33;99061.94;;;-1.56;100.00
72423;BME280;71399;54.146;38.734;2024-01-27T08:23:00;99068.59;;;-1.54;100.00
72423;BME280;71399;54.146;38.734;2024-01-27T08:25:26;99066.16;;;-1.47;100.00
72423;BME280;71399;54.146;38.734;2024-01-27T08:27:53;99065.81;;;-1.52;100.00
72423;BME280;71399;54.146;38.734;2024-01-27T08:30:19;99063.22;;;-1.44;100.00
72423;BME280;71399;54.146;38.734;2024-01-27T08:32:45;99076.31;;;-1.29;100.00
72423;BME280;71399;54.146;38.734;2024-01-27T08:35:12;99078.41;;;-1.24;100.00
72423;BME280;71399;54.146;38.734;2024-01-27T08:37:38;99072.59;;;-1.26;100.00
72423;BME280;71399;54.146;38.734;2024-01-27T08:40:06;99063.53;;;-1.31;100.00
72423;BME280;71399;54.146;38.734;2024-01-27T08:42:32;99076.00;;;-1.26;100.00
72423;BME280;71399;54.146;38.734;2024-01-27T08:44:58;99075.69;;;-1.23;100.00
72423;BME280;71399;54.146;38.734;2024-01-27T08:47:24;99080.34;;;-1.10;100.00
72423;BME280;71399;54.146;38.734;2024-01-27T08:49:50;99081.47;;;-0.96;100.00
72423;BME280;71399;54.146;38.734;2024-01-27T08:52:17;99088.25;;;-0.95;100.00
72423;BME280;71399;54.146;38.734;2024-01-27T08:54:43;99090.19;;;-1.05;100.00
72423;BME280;71399;54.146;38.734;2024-01-27T08:57:10;99096.84;;;-1.11;100.00
72423;BME280;71399;54.146;38.734;2024-01-27T08:59:36;99100.22;;;-1.02;100.00
72423;BME280;71399;54.146;38.734;2024-01-27T09:02:03;99098.25;;;-0.92;100.00
72423;BME280;71399;54.146;38.734;2024-01-27T09:04:29;99097.75;;;-0.79;100.00
72423;BME280;71399;54.146;38.734;2024-01-27T09:06:55;99103.25;;;-0.74;100.00
72423;BME280;71399;54.146;38.734;2024-01-27T09:09:21;99103.88;;;-0.72;100.00
72423;BME280;71399;54.146;38.734;2024-01-27T09:11:48;99107.75;;;-0.68;100.00
72423;BME280;71399;54.146;38.734;2024-01-27T09:14:15;99108.41;;;-0.66;100.00
72423;BME280;71399;54.146;38.734;2024-01-27T09:16:42;99115.53;;;-0.76;100.00
72423;BME280;71399;54.146;38.734;2024-01-27T09:19:08;99110.06;;;-0.81;100.00
72423;BME280;71399;54.146;38.734;2024-01-27T09:21:34;99117.03;;;-0.82;100.00
72423;BME280;71399;54.146;38.734;2024-01-27T09:24:01;99114.59;;;-0.83;100.00
72423;BME280;71399;54.146;38.734;2024-01-27T09:26:28;99121.84;;;-0.79;100.00
72423;BME280;71399;54.146;38.734;2024-01-27T09:28:54;99118.63;;;-0.81;100.00
72423;BME280;71399;54.146;38.734;2024-01-27T09:31:22;99120.09;;;-0.86;100.00
72423;BME280;71399;54.146;38.734;2024-01-27T09:33:52;99118.63;;;-0.89;100.00
72423;BME280;71399;54.146;38.734;2024-01-27T09:36:20;99114.59;;;-0.91;100.00
72423;BME280;71399;54.146;38.734;2024-01-27T09:38:46;99119.63;;;-0.90;100.00
72423;BME280;71399;54.146;38.734;2024-01-27T09:41:13;99110.06;;;-0.89;100.00
72423;BME280;71399;54.146;38.734;2024-01-27T09:43:42;99116.53;;;-0.85;100.00
72423;BME280;71399;54.146;38.734;2024-01-27T09:46:15;99125.59;;;-0.98;100.00
72423;BME280;71399;54.146;38.734;2024-01-27T09:48:42;99119.78;;;-1.00;100.00
72423;BME280;71399;54.146;38.734;2024-01-27T09:51:10;99116.41;;;-1.08;100.00
72423;BME280;71399;54.146;38.734;2024-01-27T09:53:37;99107.50;;;-1.14;100.00
72423;BME280;71399;54.146;38.734;2024-01-27T09:56:03;99124.81;;;-1.06;100.00
72423;BME280;71399;54.146;38.734;2024-01-27T09:58:30;99129.97;;;-1.06;100.00
72423;BME280;71399;54.146;38.734;2024-01-27T10:00:59;99116.09;;;-1.14;100.00
72423;BME280;71399;54.146;38.734;2024-01-27T10:03:27;99129.50;;;-0.94;100.00
72423;BME280;71399;54.146;38.734;2024-01-27T10:05:56;99135.94;;;-0.81;100.00
72423;BME280;71399;54.146;38.734;2024-01-27T10:08:23;99134.16;;;-0.81;100.00
72423;BME280;71399;54.146;38.734;2024-01-27T10:10:56;99136.09;;;-0.83;100.00
72423;BME280;71399;54.146;38.734;2024-01-27T10:13:22;99130.44;;;-0.86;100.00
72423;BME280;71399;54.146;38.734;2024-01-27T10:16:00;99131.88;;;-0.84;100.00
72423;BME280;71399;54.146;38.734;2024-01-27T10:18:28;99131.56;;;-0.81;100.00
72423;BME280;71399;54.146;38.734;2024-01-27T10:20:54;99145.09;;;-0.62;100.00
72423;BME280;71399;54.146;38.734;2024-01-27T10:23:21;99147.84;;;-0.56;100.00
72423;BME280;71399;54.146;38.734;2024-01-27T10:25:48;99151.75;;;-0.60;100.00
72423;BME280;71399;54.146;38.734;2024-01-27T10:28:15;99152.72;;;-0.69;100.00
72423;BME280;71399;54.146;38.734;2024-01-27T10:30:41;99151.28;;;-0.71;100.00
72423;BME280;71399;54.146;38.734;2024-01-27T10:33:08;99149.66;;;-0.81;100.00
72423;BME280;71399;54.146;38.734;2024-01-27T10:35:57;99137.41;;;-0.87;100.00
72423;BME280;71399;54.146;38.734;2024-01-27T10:38:39;99156.94;;;-0.76;100.00
72423;BME280;71399;54.146;38.734;2024-01-27T10:41:09;99161.81;;;-0.81;100.00
72423;BME280;71399;54.146;38.734;2024-01-27T10:43:38;99151.31;;;-0.88;100.00
72423;BME280;71399;54.146;38.734;2024-01-27T10:46:08;99159.22;;;-0.98;100.00
72423;BME280;71399;54.146;38.734;2024-01-27T10:48:35;99161.03;;;-1.06;100.00
72423;BME280;71399;54.146;38.734;2024-01-27T10:51:09;99169.75;;;-0.99;100.00
72423;BME280;71399;54.146;38.734;2024-01-27T10:53:39;99180.25;;;-1.01;100.00
72423;BME280;71399;54.146;38.734;2024-01-27T10:56:07;99178.66;;;-1.02;100.00
72423;BME280;71399;54.146;38.734;2024-01-27T10:58:36;99174.44;;;-1.03;100.00
72423;BME280;71399;54.146;38.734;2024-01-27T11:01:10;99183.16;;;-0.96;100.00
72423;BME280;71399;54.146;38.734;2024-01-27T11:03:38;99179.13;;;-0.98;100.00
72423;BME280;71399;54.146;38.734;2024-01-27T11:06:09;99183.16;;;-1.04;100.00
72423;BME280;71399;54.146;38.734;2024-01-27T11:08:38;99190.75;;;-1.10;100.00
72423;BME280;71399;54.146;38.734;2024-01-27T11:11:04;99194.16;;;-1.18;100.00
72423;BME280;71399;54.146;38.734;2024-01-27T11:13:32;99186.69;;;-1.29;100.00
72423;BME280;71399;54.146;38.734;2024-01-27T11:15:59;99198.66;;;-1.28;100.00
72423;BME280;71399;54.146;38.734;2024-01-27T11:18:26;99200.09;;;-1.34;100.00
72423;BME280;71399;54.146;38.734;2024-01-27T11:20:57;99200.25;;;-1.36;100.00
72423;BME280;71399;54.146;38.734;2024-01-27T11:23:35;99205.25;;;-1.34;100.00
72423;BME280;71399;54.146;38.734;2024-01-27T11:26:05;99199.91;;;-1.41;100.00
72423;BME280;71399;54.146;38.734;2024-01-27T11:28:32;99215.75;;;-1.36;100.00
72423;BME280;71399;54.146;38.734;2024-01-27T11:30:58;99219.19;;;-1.35;100.00
72423;BME280;71399;54.146;38.734;2024-01-27T11:33:29;99216.44;;;-1.25;100.00
72423;BME280;71399;54.146;38.734;2024-01-27T11:36:04;99222.59;;;-1.26;100.00
72423;BME280;71399;54.146;38.734;2024-01-27T11:38:32;99224.19;;;-1.34;100.00
72423;BME280;71399;54.146;38.734;2024-01-27T11:41:01;99227.41;;;-1.40;100.00
72423;BME280;71399;54.146;38.734;2024-01-27T11:43:28;99228.34;;;-1.49;100.00
72423;BME280;71399;54.146;38.734;2024-01-27T11:45:58;99232.03;;;-1.60;100.00
72423;BME280;71399;54.146;38.734;2024-01-27T11:48:26;99227.03;;;-1.61;100.00
72423;BME280;71399;54.146;38.734;2024-01-27T11:51:10;99220.72;;;-1.67;100.00
72423;BME280;71399;54.146;38.734;2024-01-27T11:53:37;99231.50;;;-1.72;100.00
72423;BME280;71399;54.146;38.734;2024-01-27T11:56:04;99236.16;;;-1.83;100.00
72423;BME280;71399;54.146;38.734;2024-01-27T11:58:32;99237.53;;;-1.97;100.00
72423;BME280;71399;54.146;38.734;2024-01-27T12:00:59;99239.75;;;-2.02;100.00
72423;BME280;71399;54.146;38.734;2024-01-27T12:03:27;99237.31;;;-2.04;100.00
72423;BME280;71399;54.146;38.734;2024-01-27T12:05:55;99246.41;;;-2.00;100.00
72423;BME280;71399;54.146;38.734;2024-01-27T12:08:21;99245.13;;;-1.96;100.00
72423;BME280;71399;54.146;38.734;2024-01-27T12:10:48;99247.03;;;-1.98;100.00
72423;BME280;71399;54.146;38.734;2024-01-27T12:13:15;99259.16;;;-1.98;100.00
72423;BME280;71399;54.146;38.734;2024-01-27T12:15:42;99247.81;;;-2.06;100.00
72423;BME280;71399;54.146;38.734;2024-01-27T12:18:09;99266.25;;;-2.00;100.00
72423;BME280;71399;54.146;38.734;2024-01-27T12:20:36;99270.09;;;-2.05;100.00
72423;BME280;71399;54.146;38.734;2024-01-27T12:23:06;99270.69;;;-2.11;100.00
72423;BME280;71399;54.146;38.734;2024-01-27T12:25:32;99275.06;;;-2.11;100.00
72423;BME280;71399;54.146;38.734;2024-01-27T12:28:17;99270.34;;;-2.16;100.00
72423;BME280;71399;54.146;38.734;2024-01-27T12:30:45;99272.13;;;-2.16;100.00
72423;BME280;71399;54.146;38.734;2024-01-27T12:33:13;99262.88;;;-2.27;100.00
72423;BME280;71399;54.146;38.734;2024-01-27T12:35:39;99284.69;;;-2.21;100.00
72423;BME280;71399;54.146;38.734;2024-01-27T12:38:05;99283.19;;;-2.24;100.00
72423;BME280;71399;54.146;38.734;2024-01-27T12:40:32;99283.69;;;-2.29;100.00